createdAt,value
2019-05-03T00:02:25.599Z,11.97
2019-05-03T00:05:02.379Z,15.13
2019-05-03T00:07:33.750Z,14.73
2019-05-03T00:10:05.622Z,13.60
2019-05-03T00:12:36.114Z,16.35
2019-05-03T00:15:12.070Z,12.75
2019-05-03T00:17:43.983Z,14.10
2019-05-03T00:20:14.985Z,15.08
2019-05-03T00:22:45.208Z,12.75
2019-05-03T00:25:15.746Z,12.37
2019-05-03T00:27:46.473Z,14.30
2019-05-03T00:30:17.112Z,18.70
2019-05-03T00:32:47.376Z,14.07
2019-05-03T00:35:28.519Z,14.23
2019-05-03T00:38:02.094Z,17.10
2019-05-03T00:40:35.918Z,13.35
2019-05-03T00:43:06.227Z,12.58
2019-05-03T00:45:36.556Z,11.90
2019-05-03T00:48:09.025Z,12.63
2019-05-03T00:50:39.284Z,13.20
2019-05-03T00:53:11.594Z,12.37
2019-05-03T00:55:42.028Z,10.35
2019-05-03T00:58:12.138Z,13.25
2019-05-03T01:00:42.405Z,13.72
2019-05-03T01:03:12.757Z,12.23
2019-05-03T01:05:43.356Z,15.13
2019-05-03T01:08:13.701Z,10.88
2019-05-03T01:10:44.059Z,14.38
2019-05-03T01:13:14.290Z,12.25
2019-05-03T01:15:46.298Z,16.23
2019-05-03T01:18:18.234Z,17.07
2019-05-03T01:20:48.574Z,13.85
2019-05-03T01:23:18.711Z,15.78
2019-05-03T01:25:48.909Z,14.05
2019-05-03T01:28:19.177Z,14.98
2019-05-03T01:30:51.785Z,18.90
2019-05-03T01:33:22.759Z,21.33
2019-05-03T01:35:52.981Z,18.23
2019-05-03T01:38:23.352Z,16.50
2019-05-03T01:40:54.784Z,15.83
2019-05-03T01:43:25.107Z,16.48
2019-05-03T01:45:56.149Z,16.52
2019-05-03T01:48:41.657Z,15.13
2019-05-03T01:51:26.030Z,15.20
2019-05-03T01:53:56.407Z,15.23
2019-05-03T01:56:27.038Z,14.68
2019-05-03T01:58:57.823Z,21.27
2019-05-03T02:01:32.712Z,20.55
2019-05-03T02:04:12.248Z,17.62
2019-05-03T02:06:42.582Z,20.12
2019-05-03T02:09:13.124Z,18.55
2019-05-03T02:11:43.484Z,25.55
2019-05-03T02:14:13.898Z,24.63
2019-05-03T02:16:46.644Z,27.13
2019-05-03T02:19:16.943Z,25.88
2019-05-03T02:21:47.520Z,21.95
2019-05-03T02:24:18.653Z,25.35
2019-05-03T02:27:02.130Z,23.50
2019-05-03T02:29:32.725Z,23.30
2019-05-03T02:32:03.589Z,19.52
2019-05-03T02:34:34.492Z,21.42
2019-05-03T02:37:04.947Z,20.17
2019-05-03T02:39:35.350Z,17.82
2019-05-03T02:42:11.337Z,17.95
2019-05-03T02:44:39.793Z,16.73
2019-05-03T02:47:15.932Z,19.25
2019-05-03T02:49:48.142Z,18.37
2019-05-03T02:52:37.064Z,20.55
2019-05-03T02:55:08.538Z,20.90
2019-05-03T02:57:39.940Z,20.37
2019-05-03T03:00:11.437Z,17.87
2019-05-03T03:02:42.194Z,21.65
2019-05-03T03:05:12.732Z,24.77
2019-05-03T03:07:45.998Z,22.30
2019-05-03T03:10:18.564Z,20.10
2019-05-03T03:12:55.145Z,17.77
2019-05-03T03:15:26.111Z,19.95
2019-05-03T03:17:56.854Z,23.18
2019-05-03T03:20:27.519Z,21.33
2019-05-03T03:22:58.809Z,22.02
2019-05-03T03:25:32.048Z,21.42
2019-05-03T03:28:05.188Z,22.25
2019-05-03T03:30:57.155Z,24.32
2019-05-03T03:33:28.211Z,21.37
2019-05-03T03:36:01.290Z,24.32
2019-05-03T03:38:28.737Z,26.00
2019-05-03T03:40:59.163Z,24.47
2019-05-03T03:43:31.953Z,21.20
2019-05-03T03:46:06.758Z,24.12
2019-05-03T03:48:38.537Z,26.60
2019-05-03T03:51:10.085Z,24.50
2019-05-03T03:53:42.763Z,21.52
2019-05-03T03:56:15.986Z,22.40
2019-05-03T03:58:46.658Z,24.07
2019-05-03T04:01:21.691Z,24.30
2019-05-03T04:03:51.986Z,21.90
2019-05-03T04:06:26.653Z,22.22
2019-05-03T04:08:56.900Z,21.40
2019-05-03T04:11:27.236Z,27.00
2019-05-03T04:13:58.735Z,23.92
2019-05-03T04:16:30.557Z,21.55
2019-05-03T04:19:05.583Z,22.95
2019-05-03T04:21:36.143Z,22.52
2019-05-03T04:24:07.310Z,25.45
2019-05-03T04:26:37.768Z,21.70
2019-05-03T04:29:08.092Z,26.73
2019-05-03T04:31:38.525Z,23.57
2019-05-03T04:34:09.359Z,20.80
2019-05-03T04:36:40.203Z,29.12
2019-05-03T04:39:10.886Z,23.75
2019-05-03T04:41:42.099Z,20.35
2019-05-03T04:44:15.486Z,19.92
2019-05-03T04:46:46.494Z,23.98
2019-05-03T04:49:17.491Z,21.23
2019-05-03T04:51:47.690Z,16.93
2019-05-03T04:54:21.198Z,22.90
2019-05-03T04:56:52.331Z,15.18
2019-05-03T04:59:25.477Z,15.83
2019-05-03T05:01:57.306Z,19.83
2019-05-03T05:04:29.326Z,20.55
2019-05-03T05:07:00.126Z,19.25
2019-05-03T05:09:31.633Z,19.15
2019-05-03T05:12:05.456Z,17.70
2019-05-03T05:14:35.255Z,28.87
2019-05-03T05:17:06.348Z,24.10
2019-05-03T05:19:44.526Z,20.55
2019-05-03T05:22:24.713Z,22.67
2019-05-03T05:24:58.006Z,20.48
2019-05-03T05:27:30.047Z,20.77
2019-05-03T05:30:04.821Z,26.95
2019-05-03T05:32:36.375Z,33.00
2019-05-03T05:35:07.106Z,27.93
2019-05-03T05:37:38.739Z,29.00
2019-05-03T05:40:09.085Z,28.00
2019-05-03T05:42:39.532Z,29.35
2019-05-03T05:45:11.783Z,29.60
2019-05-03T05:47:49.999Z,49.65
2019-05-03T05:50:25.448Z,52.80
2019-05-03T05:52:56.341Z,56.15
2019-05-03T05:55:28.391Z,46.63
2019-05-03T05:58:08.329Z,45.70
2019-05-03T06:00:40.104Z,30.35
2019-05-03T06:03:10.592Z,32.65
2019-05-03T06:05:41.881Z,31.90
2019-05-03T06:08:16.721Z,28.55
2019-05-03T06:10:57.602Z,35.43
2019-05-03T06:13:29.658Z,61.05
2019-05-03T06:16:01.786Z,70.20
2019-05-03T06:18:54.478Z,88.25
2019-05-03T06:21:32.700Z,47.05
2019-05-03T06:24:08.479Z,49.60
2019-05-03T06:26:44.521Z,44.80
2019-05-03T06:29:15.843Z,34.00
2019-05-03T06:31:51.137Z,32.53
2019-05-03T06:34:21.872Z,52.45
2019-05-03T06:36:55.595Z,33.13
2019-05-03T06:39:25.720Z,27.90
2019-05-03T06:42:01.195Z,28.32
2019-05-03T06:44:31.642Z,31.87
2019-05-03T06:47:08.763Z,31.35
2019-05-03T06:49:39.134Z,36.08
2019-05-03T06:52:09.057Z,33.05
2019-05-03T06:54:41.472Z,30.80
2019-05-03T06:57:14.856Z,33.73
2019-05-03T06:59:47.099Z,31.70
2019-05-03T07:02:37.288Z,32.30
2019-05-03T07:05:29.178Z,32.10
2019-05-03T07:08:06.515Z,32.98
2019-05-03T07:10:38.467Z,26.57
2019-05-03T07:13:09.147Z,33.92
2019-05-03T07:15:39.844Z,35.25
2019-05-03T07:18:10.205Z,40.60
2019-05-03T07:20:54.948Z,32.17
2019-05-03T07:23:26.294Z,40.65
2019-05-03T07:26:00.186Z,48.85
2019-05-03T07:28:43.560Z,40.15
2019-05-03T07:31:04.844Z,26.35
2019-05-03T07:33:35.990Z,33.88
2019-05-03T07:36:06.506Z,28.50
2019-05-03T07:38:37.383Z,26.85
2019-05-03T07:41:07.747Z,23.42
2019-05-03T07:43:38.232Z,29.37
2019-05-03T07:46:10.316Z,40.90
2019-05-03T07:48:42.427Z,25.60
2019-05-03T07:51:14.464Z,29.82
2019-05-03T07:53:45.447Z,31.20
2019-05-03T07:56:19.075Z,25.43
2019-05-03T07:58:59.763Z,24.40
2019-05-03T08:01:29.866Z,24.57
2019-05-03T08:04:00.424Z,21.50
2019-05-03T08:06:30.750Z,20.12
2019-05-03T08:09:01.156Z,20.92
2019-05-03T08:11:35.307Z,21.68
2019-05-03T08:14:07.282Z,21.48
2019-05-03T08:16:37.647Z,17.70
2019-05-03T08:19:08.287Z,25.20
2019-05-03T08:21:39.211Z,19.85
2019-05-03T08:24:11.021Z,20.95
2019-05-03T08:26:42.141Z,15.50
2019-05-03T08:29:16.956Z,19.82
2019-05-03T08:31:54.590Z,20.87
2019-05-03T08:34:29.895Z,25.92
2019-05-03T08:39:44.782Z,25.90
2019-05-03T08:42:22.032Z,29.18
2019-05-03T08:44:56.637Z,23.55
2019-05-03T08:47:36.215Z,31.65
2019-05-03T08:50:10.760Z,24.15
2019-05-03T08:52:51.286Z,23.42
2019-05-03T08:55:25.512Z,22.87
2019-05-03T08:57:57.898Z,22.40
2019-05-03T09:00:31.581Z,19.87
2019-05-03T09:03:07.672Z,15.20
2019-05-03T09:05:40.317Z,18.73
2019-05-03T09:08:12.930Z,23.15
2019-05-03T09:10:48.993Z,26.15
2019-05-03T09:13:25.369Z,22.62
2019-05-03T09:15:57.013Z,18.32
2019-05-03T09:18:28.777Z,17.40
2019-05-03T09:21:00.338Z,20.75
2019-05-03T09:23:35.562Z,24.67
2019-05-03T09:26:08.887Z,25.12
2019-05-03T09:28:47.279Z,17.17
2019-05-03T09:31:24.698Z,20.77
2019-05-03T09:33:57.317Z,19.73
2019-05-03T09:36:28.871Z,21.55
2019-05-03T09:39:00.759Z,16.32
2019-05-03T09:41:34.732Z,22.37
2019-05-03T09:44:07.001Z,19.13
2019-05-03T09:46:38.652Z,23.77
2019-05-03T09:49:16.595Z,17.07
2019-05-03T09:51:49.240Z,17.40
2019-05-03T09:54:22.553Z,26.95
2019-05-03T09:56:58.629Z,20.70
2019-05-03T09:59:31.664Z,17.50
2019-05-03T10:02:04.746Z,15.38
2019-05-03T10:04:37.594Z,18.50
2019-05-03T10:07:10.226Z,23.12
2019-05-03T10:09:51.892Z,20.70
2019-05-03T10:12:25.815Z,20.37
2019-05-03T10:14:59.371Z,23.15
2019-05-03T10:17:35.150Z,23.67
2019-05-03T10:20:15.345Z,25.48
2019-05-03T10:22:50.685Z,18.65
2019-05-03T10:25:45.517Z,13.25
2019-05-03T10:28:21.127Z,19.30
2019-05-03T10:30:56.309Z,15.72
2019-05-03T10:33:48.659Z,15.83
2019-05-03T10:36:25.206Z,32.58
2019-05-03T10:38:59.249Z,22.80
2019-05-03T10:44:10.467Z,12.05
2019-05-03T10:46:41.973Z,22.15
2019-05-03T10:49:15.692Z,16.42
2019-05-03T10:51:50.737Z,19.48
2019-05-03T10:54:24.185Z,14.95
2019-05-03T10:56:57.278Z,16.30
2019-05-03T10:59:30.261Z,15.35
2019-05-03T11:02:11.892Z,13.43
2019-05-03T11:04:46.244Z,13.08
2019-05-03T11:07:28.502Z,15.90
2019-05-03T11:10:00.446Z,26.60
2019-05-03T11:12:34.749Z,37.98
2019-05-03T11:17:37.965Z,13.85
2019-05-03T11:20:10.398Z,13.55
2019-05-03T11:22:44.918Z,13.98
2019-05-03T11:25:18.846Z,14.10
2019-05-03T11:27:52.550Z,18.70
2019-05-03T11:30:24.685Z,18.05
2019-05-03T11:33:02.282Z,17.32
2019-05-03T11:35:44.740Z,13.85
2019-05-03T11:38:25.552Z,12.93
2019-05-03T11:40:57.120Z,17.12
2019-05-03T11:43:28.662Z,22.55
2019-05-03T11:46:00.779Z,22.65
2019-05-03T11:48:32.325Z,15.88
2019-05-03T11:51:04.025Z,11.33
2019-05-03T11:53:38.269Z,12.47
2019-05-03T11:56:10.868Z,12.50
2019-05-03T11:58:45.530Z,9.00
2019-05-03T12:01:20.053Z,18.17
2019-05-03T12:03:51.590Z,10.03
2019-05-03T12:06:24.901Z,12.30
2019-05-03T12:08:59.181Z,12.35
2019-05-03T12:11:38.683Z,10.63
2019-05-03T12:14:16.563Z,13.03
2019-05-03T12:17:20.120Z,15.03
2019-05-03T12:19:49.248Z,13.58
2019-05-03T12:22:22.295Z,13.62
2019-05-03T12:24:56.424Z,19.45
2019-05-03T12:27:28.355Z,22.70
2019-05-03T12:30:02.324Z,33.25
2019-05-03T12:32:37.520Z,27.65
2019-05-03T12:35:09.599Z,30.72
2019-05-03T12:37:41.293Z,22.35
2019-05-03T12:40:14.957Z,21.52
2019-05-03T12:42:46.982Z,22.62
2019-05-03T12:45:24.585Z,25.25
2019-05-03T12:47:56.195Z,27.58
2019-05-03T12:50:28.132Z,18.35
2019-05-03T12:53:02.020Z,14.05
2019-05-03T12:55:35.550Z,12.82
2019-05-03T12:58:08.575Z,11.45
2019-05-03T13:00:55.696Z,9.08
2019-05-03T13:03:32.865Z,13.80
2019-05-03T13:06:07.237Z,11.55
2019-05-03T13:08:42.135Z,9.70
2019-05-03T13:11:19.728Z,18.45
2019-05-03T13:13:55.663Z,30.43
2019-05-03T13:16:27.386Z,36.53
2019-05-03T13:18:59.625Z,30.45
2019-05-03T13:21:31.050Z,20.02
2019-05-03T13:24:02.647Z,18.32
2019-05-03T13:26:35.084Z,19.85
2019-05-03T13:29:06.933Z,16.40
2019-05-03T13:31:38.446Z,21.20
2019-05-03T13:34:10.802Z,11.22
2019-05-03T13:36:45.487Z,10.35
2019-05-03T13:39:26.336Z,12.78
2019-05-03T13:41:57.198Z,17.30
2019-05-03T13:44:31.962Z,35.20
2019-05-03T13:47:04.530Z,12.25
2019-05-03T13:49:40.586Z,11.28
2019-05-03T13:52:15.344Z,12.43
2019-05-03T13:54:47.873Z,14.07
2019-05-03T13:57:24.533Z,15.58
2019-05-03T13:59:56.864Z,21.60
2019-05-03T14:02:29.962Z,23.30
2019-05-03T14:05:01.756Z,29.65
2019-05-03T14:07:35.383Z,15.50
2019-05-03T14:10:08.272Z,12.58
2019-05-03T14:12:40.032Z,12.37
2019-05-03T14:15:12.082Z,17.65
2019-05-03T14:17:43.713Z,11.95
2019-05-03T14:20:20.397Z,12.88
2019-05-03T14:22:53.030Z,12.00
2019-05-03T14:25:24.808Z,8.53
2019-05-03T14:27:59.643Z,11.95
2019-05-03T14:30:34.509Z,11.80
2019-05-03T14:33:06.828Z,13.35
2019-05-03T14:35:38.452Z,13.50
2019-05-03T14:38:09.976Z,31.23
2019-05-03T14:40:52.023Z,20.97
2019-05-03T14:43:26.046Z,14.73
2019-05-03T14:46:01.087Z,17.50
2019-05-03T14:48:36.345Z,18.62
2019-05-03T14:51:14.721Z,17.37
2019-05-03T14:53:47.022Z,18.52
2019-05-03T14:56:25.411Z,15.75
2019-05-03T14:59:00.341Z,12.25
2019-05-03T15:01:43.615Z,17.30
2019-05-03T15:04:18.199Z,14.33
2019-05-03T15:06:50.091Z,12.20
2019-05-03T15:09:22.424Z,11.00
2019-05-03T15:11:55.632Z,13.72
2019-05-03T15:14:27.736Z,11.40
2019-05-03T15:17:01.117Z,15.18
2019-05-03T15:19:34.738Z,19.15
2019-05-03T15:22:07.906Z,19.50
2019-05-03T15:24:40.890Z,14.85
2019-05-03T15:27:17.417Z,15.63
2019-05-03T15:29:50.414Z,21.97
2019-05-03T15:32:28.043Z,18.20
2019-05-03T15:35:01.321Z,17.98
2019-05-03T15:37:35.629Z,20.32
2019-05-03T15:40:08.424Z,17.45
2019-05-03T15:42:41.579Z,19.07
2019-05-03T15:45:14.848Z,20.27
2019-05-03T15:48:04.601Z,27.15
2019-05-03T15:50:37.108Z,14.58
2019-05-03T15:53:08.729Z,15.72
2019-05-03T15:55:55.003Z,16.42
2019-05-03T15:58:29.704Z,17.12
2019-05-03T16:01:01.254Z,14.53
2019-05-03T16:03:35.601Z,16.20
2019-05-03T16:06:07.019Z,17.20
2019-05-03T16:08:38.485Z,17.25
2019-05-03T16:11:10.624Z,14.05
2019-05-03T16:13:44.841Z,13.62
2019-05-03T16:16:17.842Z,10.58
2019-05-03T16:18:51.523Z,11.22
2019-05-03T16:21:25.034Z,10.08
2019-05-03T16:23:58.347Z,8.80
2019-05-03T16:26:32.113Z,12.90
2019-05-03T16:29:05.408Z,8.98
2019-05-03T16:31:37.609Z,19.40
2019-05-03T16:34:10.043Z,8.15
2019-05-03T16:36:45.387Z,10.08
2019-05-03T16:39:16.720Z,11.53
2019-05-03T16:41:48.603Z,12.10
2019-05-03T16:44:21.203Z,11.70
2019-05-03T16:46:55.411Z,12.05
2019-05-03T16:49:27.001Z,15.08
2019-05-03T16:51:58.792Z,11.18
2019-05-03T16:54:32.290Z,13.58
2019-05-03T16:57:05.642Z,13.38
2019-05-03T16:59:37.061Z,9.00
2019-05-03T17:02:08.532Z,13.25
2019-05-03T17:04:51.742Z,9.90
2019-05-03T17:07:41.100Z,9.30
2019-05-03T17:10:19.020Z,10.98
2019-05-03T17:12:50.623Z,13.00
2019-05-03T17:15:22.229Z,10.30
2019-05-03T17:17:53.690Z,9.15
2019-05-03T17:20:25.469Z,13.38
2019-05-03T17:22:57.211Z,9.73
2019-05-03T17:25:28.873Z,7.60
2019-05-03T17:28:04.889Z,9.28
2019-05-03T17:30:38.061Z,14.80
2019-05-03T17:33:09.529Z,10.72
2019-05-03T17:35:41.126Z,11.20
2019-05-03T17:38:12.529Z,12.60
2019-05-03T17:40:46.855Z,8.98
2019-05-03T17:43:29.215Z,9.78
2019-05-03T17:46:09.556Z,7.97
2019-05-03T17:48:41.120Z,10.40
2019-05-03T17:51:15.134Z,14.13
2019-05-03T17:53:56.718Z,11.15
2019-05-03T17:56:30.356Z,10.75
2019-05-03T17:59:04.570Z,11.70
2019-05-03T18:01:42.216Z,11.30
2019-05-03T18:04:15.848Z,16.07
2019-05-03T18:06:52.311Z,11.63
2019-05-03T18:09:26.596Z,10.48
2019-05-03T18:12:00.132Z,10.80
2019-05-03T18:14:34.396Z,11.73
2019-05-03T18:17:07.059Z,10.20
2019-05-03T18:22:20.277Z,6.92
2019-05-03T18:24:58.476Z,8.30
2019-05-03T18:27:31.628Z,11.70
2019-05-03T18:30:06.746Z,11.43
2019-05-03T18:32:40.454Z,12.10
2019-05-03T18:35:15.727Z,12.55
2019-05-03T18:40:24.808Z,10.43
2019-05-03T18:43:07.639Z,8.85
2019-05-03T18:45:47.499Z,9.93
2019-05-03T18:48:24.585Z,8.65
2019-05-03T18:50:58.121Z,9.28
2019-05-03T18:53:34.458Z,9.28
2019-05-03T18:56:06.753Z,8.48
2019-05-03T18:58:39.710Z,11.93
2019-05-03T19:01:14.799Z,11.90
2019-05-03T19:03:51.978Z,9.70
2019-05-03T19:06:30.288Z,10.93
2019-05-03T19:09:05.262Z,10.63
2019-05-03T19:11:51.766Z,10.78
2019-05-03T19:14:25.777Z,10.93
2019-05-03T19:17:02.126Z,11.63
2019-05-03T19:19:44.997Z,14.15
2019-05-03T19:22:16.823Z,9.85
2019-05-03T19:24:49.702Z,8.60
2019-05-03T19:27:21.771Z,11.85
2019-05-03T19:29:55.428Z,8.43
2019-05-03T19:32:28.276Z,10.13
2019-05-03T19:35:00.330Z,12.90
2019-05-03T19:37:31.997Z,10.38
2019-05-03T19:40:06.551Z,12.33
2019-05-03T19:42:40.049Z,10.48
2019-05-03T19:45:12.101Z,7.67
2019-05-03T19:47:44.792Z,10.03
2019-05-03T19:50:17.639Z,10.63
2019-05-03T19:53:02.610Z,9.45
2019-05-03T19:58:05.741Z,13.43
2019-05-03T20:00:39.054Z,8.83
2019-05-03T20:03:12.325Z,10.43
2019-05-03T20:05:51.814Z,11.97
2019-05-03T20:08:31.112Z,8.83
2019-05-03T20:11:17.873Z,10.75
2019-05-03T20:13:52.208Z,7.47
2019-05-03T20:16:25.945Z,11.18
2019-05-03T20:18:57.624Z,10.20
2019-05-03T20:21:30.425Z,9.80
2019-05-03T20:24:05.449Z,9.83
2019-05-03T20:26:38.492Z,7.60
2019-05-03T20:29:10.717Z,10.00
2019-05-03T20:31:44.712Z,10.10
2019-05-03T20:36:48.088Z,10.18
2019-05-03T20:39:22.799Z,8.80
2019-05-03T20:41:56.710Z,11.28
2019-05-03T20:44:30.033Z,13.03
2019-05-03T20:47:14.960Z,9.23
2019-05-03T20:49:48.309Z,12.60
2019-05-03T20:52:21.112Z,9.13
2019-05-03T20:54:55.132Z,9.50
2019-05-03T21:00:00.032Z,12.73
2019-05-03T21:02:35.506Z,10.03
2019-05-03T21:05:09.261Z,11.55
2019-05-03T21:07:45.367Z,11.63
2019-05-03T21:10:17.115Z,9.98
2019-05-03T21:12:49.902Z,12.35
2019-05-03T21:15:40.907Z,10.63
2019-05-03T21:18:24.365Z,11.60
2019-05-03T21:20:57.444Z,11.00
2019-05-03T21:23:35.225Z,9.93
2019-05-03T21:26:13.662Z,9.33
2019-05-03T21:28:44.932Z,8.68
2019-05-03T21:31:16.541Z,12.47
2019-05-03T21:33:48.478Z,11.80
2019-05-03T21:36:25.354Z,10.30
2019-05-03T21:38:56.769Z,9.25
2019-05-03T21:41:29.002Z,11.83
2019-05-03T21:44:02.346Z,12.50
2019-05-03T21:46:45.072Z,9.93
2019-05-03T21:49:25.198Z,11.40
2019-05-03T21:51:58.368Z,12.58
2019-05-03T21:54:30.849Z,10.98
2019-05-03T21:57:02.768Z,13.40
2019-05-03T21:59:35.447Z,13.00
2019-05-03T22:02:08.816Z,13.40
2019-05-03T22:04:44.791Z,12.07
2019-05-03T22:07:16.382Z,13.80
2019-05-03T22:09:48.097Z,12.82
2019-05-03T22:12:19.549Z,18.25
2019-05-03T22:15:10.826Z,12.88
2019-05-03T22:18:02.349Z,11.93
2019-05-03T22:20:39.940Z,11.18
2019-05-03T22:23:16.039Z,12.33
2019-05-03T22:25:47.696Z,11.48
2019-05-03T22:28:19.408Z,10.43
2019-05-03T22:30:51.045Z,12.40
2019-05-03T22:33:24.167Z,17.20
2019-05-03T22:36:07.591Z,17.62
2019-05-03T22:38:28.938Z,12.82
2019-05-03T22:41:01.355Z,13.43
2019-05-03T22:43:34.866Z,11.90
2019-05-03T22:46:06.366Z,17.33
2019-05-03T22:48:37.732Z,10.05
2019-05-03T22:51:09.402Z,11.25
2019-05-03T22:53:40.955Z,10.63
2019-05-03T22:56:14.436Z,12.60
2019-05-03T22:58:46.472Z,11.30
2019-05-03T23:01:18.228Z,10.10
2019-05-03T23:03:49.744Z,13.65
2019-05-03T23:06:22.705Z,15.93
2019-05-03T23:08:56.220Z,9.30
2019-05-03T23:11:27.722Z,15.75
2019-05-03T23:14:04.621Z,11.18
2019-05-03T23:16:36.570Z,9.80
2019-05-03T23:19:07.892Z,12.63
2019-05-03T23:21:44.191Z,10.88
2019-05-03T23:24:15.858Z,12.03
2019-05-03T23:26:47.568Z,15.28
2019-05-03T23:29:19.261Z,13.70
2019-05-03T23:31:50.848Z,14.03
2019-05-03T23:34:24.642Z,10.10
2019-05-03T23:36:56.007Z,11.22
2019-05-03T23:39:27.797Z,12.93
2019-05-03T23:41:59.339Z,14.83
2019-05-03T23:44:30.837Z,13.72
2019-05-03T23:47:06.970Z,16.57
2019-05-03T23:49:38.640Z,16.02
2019-05-03T23:52:26.619Z,20.12
2019-05-03T23:55:00.832Z,15.25
